Time;durP1;ratioP1;P1;durP2;ratioP2;P2;SDS_P1;SDS_P2;PMS_P1;PMS_P2;Temp;Humidity;BMP_temperature;BMP_pressure;BME280_temperature;BME280_humidity;BME280_pressure;Samples;Min_cycle;Max_cycle;Signal;HPM_P1;HPM_P2
2023/09/15 00:00:25;;;;;;;18.30;14.93;;;17.40;99.90;;;;;;4999369;28;20015;-93
2023/09/15 00:02:56;;;;;;;19.33;15.95;;;17.30;99.90;;;;;;4986936;28;20027;-93
2023/09/15 00:05:29;;;;;;;16.13;14.57;;;17.30;99.90;;;;;;4962718;29;20083;-93
2023/09/15 00:07:58;;;;;;;17.17;15.38;;;17.20;99.90;;;;;;4960342;29;20058;-93
2023/09/15 00:10:26;;;;;;;20.52;15.80;;;17.20;99.90;;;;;;4961326;29;20045;-93
2023/09/15 00:12:52;;;;;;;16.77;15.07;;;17.20;99.90;;;;;;4960289;29;20031;-94
2023/09/15 00:15:18;;;;;;;17.45;14.77;;;17.20;99.90;;;;;;4975757;28;20083;-93
2023/09/15 00:17:44;;;;;;;19.95;16.17;;;17.10;99.90;;;;;;4992126;28;20042;-92
2023/09/15 00:20:25;;;;;;;17.17;15.48;;;17.10;99.90;;;;;;4983384;28;20023;-94
2023/09/15 00:22:53;;;;;;;17.27;15.50;;;17.20;99.90;;;;;;4973911;28;20058;-93
2023/09/15 00:25:26;;;;;;;17.20;14.82;;;17.20;99.90;;;;;;4960224;29;20030;-93
2023/09/15 00:27:54;;;;;;;19.48;15.80;;;16.30;99.90;;;;;;4960411;29;20071;-95
2023/09/15 00:30:22;;;;;;;18.25;16.20;;;17.10;99.90;;;;;;4965493;28;20067;-92
2023/09/15 00:32:49;;;;;;;19.58;15.60;;;17.10;99.90;;;;;;4966707;29;20031;-95
2023/09/15 00:35:17;;;;;;;17.88;15.98;;;17.10;99.90;;;;;;4976826;28;20050;-94
2023/09/15 00:37:51;;;;;;;18.98;16.40;;;17.50;99.90;;;;;;4977988;28;20043;-94
2023/09/15 00:40:45;;;;;;;20.75;15.90;;;16.70;99.90;;;;;;4963057;28;20026;-93
2023/09/15 00:43:29;;;;;;;18.65;15.48;;;17.00;99.90;;;;;;4971509;28;20027;-93
2023/09/15 00:45:58;;;;;;;17.98;16.17;;;17.10;99.90;;;;;;4973179;29;20004;-95
2023/09/15 00:48:26;;;;;;;18.77;16.83;;;16.20;99.90;;;;;;4974330;29;20035;-95
2023/09/15 00:50:52;;;;;;;22.90;16.17;;;17.20;99.90;;;;;;4974668;29;20067;-94
2023/09/15 00:53:22;;;;;;;18.92;16.65;;;16.90;99.90;;;;;;4983422;28;20095;-94
2023/09/15 00:56:14;;;;;;;21.90;15.52;;;17.00;99.90;;;;;;4997869;28;20034;-94
2023/09/15 00:58:41;;;;;;;17.73;15.82;;;16.50;99.90;;;;;;4996940;28;20043;-93
2023/09/15 01:01:08;;;;;;;18.58;16.08;;;16.10;99.90;;;;;;4996746;28;20014;-94
2023/09/15 01:03:39;;;;;;;24.52;16.98;;;17.60;99.90;;;;;;4999245;28;20094;-93
2023/09/15 01:06:25;;;;;;;17.55;15.70;;;17.00;99.90;;;;;;4999176;28;20035;-94
2023/09/15 01:08:55;;;;;;;18.05;16.13;;;15.40;99.90;;;;;;4993950;28;20039;-94
2023/09/15 01:11:28;;;;;;;22.42;16.55;;;16.90;99.90;;;;;;4998348;28;20086;-94
2023/09/15 01:14:03;;;;;;;18.85;16.25;;;17.00;99.90;;;;;;4964919;28;20039;-93
2023/09/15 01:16:49;;;;;;;19.30;16.70;;;16.90;99.90;;;;;;4979296;28;20046;-92
2023/09/15 01:19:39;;;;;;;24.27;17.17;;;17.50;99.90;;;;;;4996861;28;20042;-94
2023/09/15 01:22:44;;;;;;;22.05;17.23;;;16.90;99.90;;;;;;4996628;28;20030;-94
2023/09/15 01:25:33;;;;;;;24.92;17.67;;;16.80;99.90;;;;;;4998654;28;20015;-94
2023/09/15 01:28:36;;;;;;;21.50;17.55;;;16.00;99.90;;;;;;4997439;28;20023;-94
2023/09/15 01:31:11;;;;;;;20.52;16.90;;;16.90;99.90;;;;;;4919252;28;20091;-94
2023/09/15 01:33:54;;;;;;;20.80;17.63;;;16.60;99.90;;;;;;4982496;28;20022;-95
2023/09/15 01:36:32;;;;;;;20.20;16.33;;;16.90;99.90;;;;;;4987334;28;20024;-94
2023/09/15 01:38:59;;;;;;;20.45;16.83;;;16.90;99.90;;;;;;4955281;28;20051;-93
2023/09/15 01:41:25;;;;;;;18.58;16.45;;;16.90;99.90;;;;;;4999931;28;20046;-93
2023/09/15 01:43:53;;;;;;;20.38;17.30;;;16.80;99.90;;;;;;5002102;28;20015;-93
2023/09/15 01:46:23;;;;;;;18.17;16.38;;;16.70;99.90;;;;;;4996934;28;20057;-94
2023/09/15 01:48:58;;;;;;;22.45;17.80;;;17.20;99.90;;;;;;4981951;28;20035;-94
2023/09/15 01:51:26;;;;;;;21.80;17.50;;;16.90;99.90;;;;;;4981609;28;20062;-94
2023/09/15 01:53:53;;;;;;;21.17;16.80;;;16.90;99.90;;;;;;4963287;29;20074;-94
2023/09/15 01:56:21;;;;;;;21.23;17.45;;;17.00;99.90;;;;;;4982220;28;20125;-94
2023/09/15 01:58:52;;;;;;;21.23;17.38;;;17.10;99.90;;;;;;4985842;28;20009;-95
2023/09/15 02:01:33;;;;;;;19.17;16.48;;;16.60;99.90;;;;;;4997421;28;20038;-94
2023/09/15 02:03:59;;;;;;;25.38;17.25;;;16.80;99.90;;;;;;4996007;28;20010;-94
2023/09/15 02:06:26;;;;;;;23.60;17.05;;;16.80;99.90;;;;;;4985343;28;20042;-95
2023/09/15 02:08:56;;;;;;;18.98;16.98;;;17.30;99.90;;;;;;5002311;28;20035;-94
2023/09/15 02:11:27;;;;;;;21.55;17.52;;;15.90;99.90;;;;;;4998490;28;20038;-95
2023/09/15 02:13:54;;;;;;;22.02;17.02;;;16.70;99.90;;;;;;4996969;28;20053;-94
2023/09/15 02:16:25;;;;;;;18.77;16.98;;;17.40;99.90;;;;;;4995856;28;20039;-94
2023/09/15 02:18:52;;;;;;;21.10;17.48;;;17.10;99.90;;;;;;4993652;28;20026;-94
2023/09/15 02:21:20;;;;;;;19.90;16.75;;;16.60;99.90;;;;;;4962332;29;20554;-95
2023/09/15 02:23:46;;;;;;;25.25;18.08;;;16.70;99.90;;;;;;4987032;28;20027;-94
2023/09/15 02:26:28;;;;;;;20.55;18.33;;;16.80;99.90;;;;;;4985252;28;20042;-94
2023/09/15 02:28:54;;;;;;;20.63;16.93;;;15.60;99.90;;;;;;4999105;28;20015;-93
2023/09/15 02:31:20;;;;;;;22.13;18.65;;;16.70;99.90;;;;;;5001396;28;20043;-94
2023/09/15 02:33:46;;;;;;;19.35;17.40;;;16.60;99.90;;;;;;4990890;28;20105;-93
2023/09/15 02:36:12;;;;;;;20.88;17.42;;;16.60;99.90;;;;;;4980461;28;20030;-94
2023/09/15 02:38:37;;;;;;;19.23;17.23;;;17.30;99.90;;;;;;4985207;28;20087;-93
2023/09/15 02:41:03;;;;;;;21.10;18.17;;;17.60;99.90;;;;;;4986279;28;20030;-93
2023/09/15 02:43:29;;;;;;;19.92;17.83;;;16.60;99.90;;;;;;4970135;28;20038;-93
2023/09/15 02:46:01;;;;;;;23.42;19.58;;;16.70;99.90;;;;;;4986921;28;20036;-93
2023/09/15 02:48:26;;;;;;;21.02;18.95;;;17.10;99.90;;;;;;4972940;29;20023;-94
2023/09/15 02:50:52;;;;;;;34.45;19.10;;;16.50;99.90;;;;;;4966208;29;20055;-92
2023/09/15 02:53:18;;;;;;;24.63;19.60;;;16.50;99.90;;;;;;4965606;28;20090;-93
2023/09/15 02:55:54;;;;;;;23.20;19.52;;;16.50;99.90;;;;;;4973361;28;20078;-93
2023/09/15 02:58:20;;;;;;;25.23;19.13;;;16.40;99.90;;;;;;4980413;28;20058;-94
2023/09/15 03:00:47;;;;;;;22.95;20.52;;;16.40;99.90;;;;;;4977907;28;20023;-92
2023/09/15 03:03:13;;;;;;;22.05;19.83;;;17.40;99.90;;;;;;4974065;28;20024;-93
2023/09/15 03:05:39;;;;;;;22.83;20.48;;;16.60;99.90;;;;;;4962533;29;20123;-93
2023/09/15 03:08:04;;;;;;;21.80;19.08;;;16.90;99.90;;;;;;4980576;28;20019;-93
2023/09/15 03:10:34;;;;;;;22.38;20.05;;;16.40;99.90;;;;;;4981128;28;20021;-93
2023/09/15 03:13:02;;;;;;;23.95;20.67;;;16.30;99.90;;;;;;4970340;28;20037;-94
2023/09/15 03:15:28;;;;;;;22.98;19.45;;;16.60;99.90;;;;;;4961040;29;20031;-94
2023/09/15 03:17:53;;;;;;;24.00;20.65;;;16.30;99.90;;;;;;4959729;29;20027;-95
2023/09/15 03:20:21;;;;;;;25.48;19.58;;;16.80;99.90;;;;;;4959882;29;20031;-93
2023/09/15 03:22:47;;;;;;;24.42;20.50;;;16.50;99.90;;;;;;4970094;28;20053;-93
2023/09/15 03:25:14;;;;;;;25.92;20.10;;;16.90;99.90;;;;;;4995956;28;20031;-91
2023/09/15 03:27:40;;;;;;;22.20;19.38;;;16.30;99.90;;;;;;4990647;28;20046;-93
2023/09/15 03:30:06;;;;;;;23.85;20.45;;;16.40;99.90;;;;;;4961416;28;20027;-93
2023/09/15 03:32:33;;;;;;;23.25;20.27;;;16.30;99.90;;;;;;4962741;28;20130;-94
2023/09/15 03:34:59;;;;;;;27.55;22.50;;;17.10;99.90;;;;;;4959375;29;20031;-94
2023/09/15 03:37:25;;;;;;;24.27;19.35;;;16.20;99.90;;;;;;4959393;29;20039;-95
2023/09/15 03:39:51;;;;;;;22.58;19.27;;;16.20;99.90;;;;;;4957638;29;20035;-93
2023/09/15 03:42:17;;;;;;;24.52;21.35;;;16.30;99.90;;;;;;4962110;29;20106;-93
2023/09/15 03:44:43;;;;;;;23.02;20.60;;;16.20;99.90;;;;;;4957496;29;20459;-93
2023/09/15 03:47:09;;;;;;;22.77;19.65;;;16.20;99.90;;;;;;4960037;29;20111;-93
2023/09/15 03:49:35;;;;;;;23.10;20.13;;;16.20;99.90;;;;;;4961898;29;20527;-94
2023/09/15 03:52:00;;;;;;;24.25;19.77;;;16.80;99.90;;;;;;4960733;28;20034;-93
2023/09/15 03:54:26;;;;;;;24.25;20.60;;;16.20;99.90;;;;;;4975231;28;20026;-94
2023/09/15 03:56:54;;;;;;;22.63;20.13;;;16.20;99.90;;;;;;4960032;29;20075;-94
2023/09/15 03:59:20;;;;;;;27.80;21.15;;;16.50;99.90;;;;;;4959355;29;20052;-93
2023/09/15 04:01:54;;;;;;;25.08;19.90;;;17.20;99.90;;;;;;4959352;29;20433;-94
2023/09/15 04:04:19;;;;;;;24.77;21.10;;;17.30;99.90;;;;;;4958737;28;20432;-92
2023/09/15 04:06:45;;;;;;;24.45;19.65;;;16.10;99.90;;;;;;4964091;29;20059;-94
2023/09/15 04:09:12;;;;;;;28.40;20.02;;;16.10;99.90;;;;;;4976149;29;20577;-94
2023/09/15 04:11:39;;;;;;;24.65;20.15;;;16.00;99.90;;;;;;4979481;28;20103;-94
2023/09/15 04:14:06;;;;;;;24.10;20.60;;;16.80;99.90;;;;;;4980261;28;20023;-93
2023/09/15 04:16:32;;;;;;;23.92;20.42;;;15.80;99.90;;;;;;4975345;28;20035;-93
2023/09/15 04:18:58;;;;;;;23.13;20.10;;;17.30;99.90;;;;;;4980219;28;20039;-93
2023/09/15 04:21:23;;;;;;;23.33;20.83;;;15.90;99.90;;;;;;4980140;28;20047;-93
2023/09/15 04:23:50;;;;;;;25.27;19.30;;;17.00;99.90;;;;;;4960676;29;20023;-95
2023/09/15 04:26:16;;;;;;;24.70;19.60;;;15.10;99.90;;;;;;4960891;28;20031;-91
2023/09/15 04:28:42;;;;;;;28.60;19.70;;;15.80;99.90;;;;;;4978550;28;20583;-93
2023/09/15 04:31:08;;;;;;;25.98;20.33;;;15.80;99.90;;;;;;4977246;28;20055;-92
2023/09/15 04:33:44;;;;;;;22.13;19.73;;;16.70;99.90;;;;;;4989801;28;20031;-92
2023/09/15 04:36:11;;;;;;;23.85;18.77;;;15.70;99.90;;;;;;4992952;28;20041;-92
2023/09/15 04:38:39;;;;;;;21.52;19.20;;;15.70;99.90;;;;;;4978161;28;20028;-93
2023/09/15 04:41:05;;;;;;;23.38;19.27;;;15.20;99.90;;;;;;4977619;29;20038;-92
2023/09/15 04:43:33;;;;;;;23.42;19.10;;;15.70;99.90;;;;;;4993630;28;20054;-92
2023/09/15 04:45:59;;;;;;;20.55;18.45;;;16.90;99.90;;;;;;4995931;28;20023;-92
2023/09/15 04:48:46;;;;;;;22.85;18.70;;;15.80;99.90;;;;;;4992056;28;20090;-92
2023/09/15 04:51:16;;;;;;;20.30;17.77;;;15.80;99.90;;;;;;4990454;28;20031;-93
2023/09/15 04:53:42;;;;;;;21.47;19.20;;;17.00;99.90;;;;;;4989137;28;20039;-93
2023/09/15 04:56:08;;;;;;;22.35;18.23;;;15.80;99.90;;;;;;4991850;28;20066;-94
2023/09/15 04:58:37;;;;;;;21.60;19.30;;;15.80;99.90;;;;;;4968377;28;20069;-94
2023/09/15 05:01:03;;;;;;;20.67;18.02;;;15.50;99.90;;;;;;4975406;28;20035;-93
2023/09/15 05:03:29;;;;;;;20.73;18.45;;;16.30;99.90;;;;;;4944831;29;20429;-93
2023/09/15 05:05:55;;;;;;;21.27;18.75;;;16.90;99.90;;;;;;4961436;29;20031;-92
2023/09/15 05:08:22;;;;;;;20.50;18.20;;;16.30;99.90;;;;;;4960214;28;20049;-91
2023/09/15 05:10:49;;;;;;;21.02;18.23;;;16.90;99.90;;;;;;4972438;28;20197;-92
2023/09/15 05:13:25;;;;;;;23.08;17.70;;;15.80;99.90;;;;;;4994690;28;20019;-90
2023/09/15 05:15:50;;;;;;;21.65;18.17;;;15.80;99.90;;;;;;4995516;28;20039;-92
2023/09/15 05:18:16;;;;;;;20.90;18.25;;;15.80;99.90;;;;;;4993010;28;20046;-92
2023/09/15 05:20:42;;;;;;;22.67;18.35;;;15.70;99.90;;;;;;4974759;28;20069;-91
2023/09/15 05:23:07;;;;;;;24.95;18.83;;;15.70;99.90;;;;;;4974735;28;20082;-92
2023/09/15 05:25:34;;;;;;;21.35;17.67;;;15.70;99.90;;;;;;4975203;28;20027;-92
2023/09/15 05:28:01;;;;;;;20.02;17.77;;;15.70;99.90;;;;;;4974249;28;20027;-91
2023/09/15 05:30:27;;;;;;;21.73;18.42;;;15.70;99.90;;;;;;4976475;28;20052;-91
2023/09/15 05:32:53;;;;;;;19.92;17.52;;;15.60;99.90;;;;;;4975189;28;20055;-92
2023/09/15 05:35:18;;;;;;;20.98;16.92;;;15.60;99.90;;;;;;4974773;28;20090;-92
2023/09/15 05:37:44;;;;;;;20.48;16.95;;;15.60;99.90;;;;;;4974285;28;20018;-91
2023/09/15 05:40:10;;;;;;;20.85;18.50;;;15.60;99.90;;;;;;4974762;28;20023;-92
2023/09/15 05:42:35;;;;;;;19.48;16.83;;;15.60;99.90;;;;;;4973437;28;20023;-92
2023/09/15 05:45:01;;;;;;;18.70;16.70;;;15.60;99.90;;;;;;4975238;28;20015;-93
2023/09/15 05:47:27;;;;;;;18.73;16.83;;;15.60;99.90;;;;;;4976380;28;20058;-93
2023/09/15 05:49:52;;;;;;;18.88;16.17;;;15.60;99.90;;;;;;4975814;28;20114;-92
2023/09/15 05:52:18;;;;;;;21.00;17.13;;;15.60;99.90;;;;;;4975424;28;20434;-92
2023/09/15 05:54:44;;;;;;;20.13;16.58;;;15.60;99.90;;;;;;4966795;28;20034;-91
2023/09/15 05:57:10;;;;;;;18.52;16.10;;;15.60;99.90;;;;;;4975326;28;20042;-93
2023/09/15 05:59:36;;;;;;;21.02;16.58;;;15.60;99.90;;;;;;4974948;28;20035;-92
2023/09/15 06:02:02;;;;;;;24.00;16.83;;;15.60;99.90;;;;;;4971758;28;20034;-92
2023/09/15 06:04:28;;;;;;;22.17;16.00;;;15.60;99.90;;;;;;4974511;28;20050;-91
2023/09/15 06:06:53;;;;;;;23.98;16.52;;;15.50;99.90;;;;;;4987871;28;20018;-92
2023/09/15 06:09:19;;;;;;;18.55;15.88;;;15.50;99.90;;;;;;4996948;28;20011;-92
2023/09/15 06:11:44;;;;;;;19.02;15.98;;;15.50;99.90;;;;;;4989935;28;20038;-94
2023/09/15 06:14:10;;;;;;;18.85;15.75;;;15.50;99.90;;;;;;4978190;28;20034;-93
2023/09/15 06:16:36;;;;;;;22.42;16.23;;;16.50;99.90;;;;;;4989447;28;20033;-93
2023/09/15 06:19:03;;;;;;;23.48;16.13;;;16.70;99.90;;;;;;4998150;28;20034;-94
2023/09/15 06:21:29;;;;;;;21.85;15.75;;;15.40;99.90;;;;;;4993659;28;20039;-92
2023/09/15 06:24:00;;;;;;;17.80;15.20;;;16.10;99.90;;;;;;4969573;28;20383;-93
2023/09/15 06:26:25;;;;;;;20.58;15.25;;;15.50;99.90;;;;;;4983451;28;20030;-92
2023/09/15 06:28:51;;;;;;;22.63;15.73;;;15.40;99.90;;;;;;4987494;28;20049;-94
2023/09/15 06:31:18;;;;;;;20.17;15.90;;;15.40;99.90;;;;;;4996448;28;20046;-93
2023/09/15 06:33:44;;;;;;;16.52;13.93;;;15.50;99.90;;;;;;4995519;28;20031;-93
2023/09/15 06:36:10;;;;;;;20.08;14.77;;;15.50;99.90;;;;;;4991745;28;20066;-93
2023/09/15 06:38:45;;;;;;;17.23;14.70;;;16.20;99.90;;;;;;4985717;28;20093;-94
2023/09/15 06:41:11;;;;;;;23.80;14.40;;;15.50;99.90;;;;;;4979378;28;20505;-93
2023/09/15 06:43:37;;;;;;;18.80;13.65;;;15.40;99.90;;;;;;4980016;28;20027;-93
2023/09/15 06:46:04;;;;;;;19.23;13.93;;;15.50;99.90;;;;;;4964159;28;20051;-94
2023/09/15 06:48:30;;;;;;;16.63;14.48;;;16.50;99.90;;;;;;4978318;28;20051;-93
2023/09/15 06:50:57;;;;;;;20.45;14.13;;;15.40;99.90;;;;;;4981505;28;20188;-95
2023/09/15 06:53:24;;;;;;;17.98;13.48;;;15.40;99.90;;;;;;4981906;28;20043;-94
2023/09/15 06:55:56;;;;;;;20.92;14.35;;;15.40;99.90;;;;;;4993509;28;20015;-93
2023/09/15 06:58:23;;;;;;;20.10;14.82;;;16.60;99.90;;;;;;4985334;28;20026;-94
2023/09/15 07:00:49;;;;;;;16.40;13.77;;;16.60;99.90;;;;;;4984315;28;20118;-93
2023/09/15 07:03:14;;;;;;;15.73;13.57;;;15.50;99.90;;;;;;5000407;28;20007;-93
2023/09/15 07:05:40;;;;;;;16.70;14.38;;;16.60;99.90;;;;;;4993958;28;20117;-84
2023/09/15 07:08:05;;;;;;;17.13;12.90;;;15.50;99.90;;;;;;4972883;28;20023;-85
2023/09/15 07:20:40;;;;;;;16.60;12.63;;;15.70;99.90;;;;;;5630159;23;20021;-91
2023/09/15 07:29:04;;;;;;;15.02;12.95;;;15.80;99.90;;;;;;5188700;23;19921;-92
2023/09/15 07:31:35;;;;;;;17.20;12.35;;;15.70;99.90;;;;;;5353196;23;20078;-90
2023/09/15 07:34:03;;;;;;;18.98;12.38;;;15.80;99.90;;;;;;4978817;28;20026;-92
2023/09/15 07:36:29;;;;;;;14.90;12.52;;;15.80;99.90;;;;;;4970963;28;20039;-90
2023/09/15 07:38:55;;;;;;;17.13;11.48;;;15.90;99.90;;;;;;4977985;28;20467;-92
2023/09/15 07:41:21;;;;;;;12.98;11.68;;;16.60;99.90;;;;;;4978917;28;20080;-92
2023/09/15 07:43:57;;;;;;;16.40;11.73;;;17.00;99.90;;;;;;4976180;28;20113;-90
2023/09/15 07:46:23;;;;;;;13.88;10.88;;;16.00;99.90;;;;;;4977034;28;20109;-89
2023/09/15 07:48:49;;;;;;;12.63;11.02;;;16.00;99.90;;;;;;4980937;28;20022;-91
2023/09/15 07:51:27;;;;;;;14.48;10.65;;;16.10;99.90;;;;;;4979763;28;20497;-91
2023/09/15 07:54:00;;;;;;;17.92;10.98;;;16.40;99.90;;;;;;4982170;28;20034;-93
2023/09/15 07:56:25;;;;;;;16.95;10.70;;;16.20;99.90;;;;;;4991250;28;20034;-89
2023/09/15 08:01:40;;;;;;;11.60;10.43;;;16.30;99.90;;;;;;4922364;29;20044;-88
2023/09/15 08:04:06;;;;;;;13.65;10.85;;;16.30;99.90;;;;;;4949453;29;20039;-87
2023/09/15 08:06:32;;;;;;;13.75;11.13;;;16.30;99.90;;;;;;4964519;28;20106;-86
2023/09/15 08:08:58;;;;;;;12.35;10.35;;;16.40;99.90;;;;;;4975598;28;20102;-91
2023/09/15 08:11:24;;;;;;;11.80;9.60;;;16.40;99.90;;;;;;4962367;28;20027;-91
2023/09/15 08:13:50;;;;;;;11.55;9.25;;;16.50;99.90;;;;;;4969689;28;20065;-90
2023/09/15 08:16:15;;;;;;;12.25;9.80;;;16.50;99.90;;;;;;4971852;28;20220;-90
2023/09/15 08:18:41;;;;;;;10.35;9.35;;;16.60;99.90;;;;;;4964419;28;20434;-83
2023/09/15 08:21:06;;;;;;;10.95;8.70;;;16.60;99.90;;;;;;4977143;28;20420;-91
2023/09/15 08:23:33;;;;;;;10.35;8.90;;;16.70;99.90;;;;;;4979345;28;20090;-92
2023/09/15 08:26:01;;;;;;;15.77;8.77;;;16.80;99.90;;;;;;4956869;28;20081;-78
2023/09/15 08:28:26;;;;;;;12.60;9.25;;;16.90;99.90;;;;;;4952910;29;20043;-79
2023/09/15 08:30:52;;;;;;;13.55;8.88;;;17.00;99.90;;;;;;4953876;29;20047;-79
2023/09/15 08:33:17;;;;;;;11.57;10.38;;;17.00;99.90;;;;;;4953896;29;20039;-78
2023/09/15 08:35:43;;;;;;;15.88;11.98;;;17.10;99.90;;;;;;4968470;28;20031;-79
2023/09/15 08:38:09;;;;;;;12.45;11.25;;;17.20;99.90;;;;;;4971891;28;20550;-80
2023/09/15 08:40:48;;;;;;;12.48;10.63;;;17.20;99.90;;;;;;4956754;28;20027;-79
2023/09/15 08:43:14;;;;;;;13.60;12.15;;;17.20;99.90;;;;;;4965456;28;20036;-80
2023/09/15 08:45:41;;;;;;;11.55;10.43;;;17.30;99.90;;;;;;4954243;29;20481;-81
2023/09/15 08:48:09;;;;;;;12.60;10.38;;;17.30;99.90;;;;;;4954557;29;20033;-86
2023/09/15 08:50:38;;;;;;;12.00;10.73;;;17.30;99.90;;;;;;4962198;28;20090;-85
2023/09/15 08:53:04;;;;;;;15.95;10.95;;;17.40;99.90;;;;;;4972322;28;20034;-84
2023/09/15 08:55:32;;;;;;;12.25;10.98;;;17.40;99.90;;;;;;4973354;28;20018;-87
2023/09/15 08:57:59;;;;;;;16.80;10.15;;;17.40;99.90;;;;;;4973889;28;20589;-83
2023/09/15 09:00:25;;;;;;;14.02;10.18;;;17.40;99.90;;;;;;4972884;28;20106;-86
2023/09/15 09:02:52;;;;;;;11.23;9.77;;;17.60;99.90;;;;;;4964123;28;20154;-86
2023/09/15 09:05:20;;;;;;;12.50;9.70;;;18.60;99.90;;;;;;4964026;28;20025;-90
2023/09/15 09:07:49;;;;;;;14.15;9.23;;;17.60;99.90;;;;;;4953414;29;20073;-85
2023/09/15 09:10:15;;;;;;;12.95;8.80;;;17.60;99.90;;;;;;4954530;29;20079;-84
2023/09/15 09:12:41;;;;;;;18.17;8.68;;;17.60;99.90;;;;;;4964487;28;20023;-86
2023/09/15 09:15:10;;;;;;;10.65;9.05;;;17.70;99.90;;;;;;4972457;28;20030;-82
2023/09/15 09:17:39;;;;;;;9.30;8.50;;;17.70;99.90;;;;;;4972521;28;20034;-84
2023/09/15 09:20:08;;;;;;;10.60;9.02;;;17.70;99.90;;;;;;4972537;28;20114;-83
2023/09/15 09:22:34;;;;;;;11.52;8.27;;;17.80;99.90;;;;;;4970811;28;20113;-84
2023/09/15 09:25:00;;;;;;;10.63;7.95;;;17.90;99.90;;;;;;4974791;28;20098;-85
2023/09/15 09:27:34;;;;;;;9.27;8.10;;;17.90;99.90;;;;;;4971503;28;20034;-85
2023/09/15 09:30:00;;;;;;;15.13;8.45;;;18.00;99.90;;;;;;4969547;28;20133;-86
2023/09/15 09:32:26;;;;;;;9.18;7.25;;;18.00;99.90;;;;;;4967729;28;20462;-85
2023/09/15 09:34:52;;;;;;;9.20;7.85;;;18.10;99.90;;;;;;4972412;28;20058;-85
2023/09/15 09:37:23;;;;;;;10.48;7.53;;;18.50;99.90;;;;;;4972563;28;20102;-81
2023/09/15 09:39:48;;;;;;;8.27;7.30;;;18.20;99.90;;;;;;4973235;28;20034;-84
2023/09/15 09:42:14;;;;;;;12.45;8.38;;;18.20;99.90;;;;;;4973764;28;20027;-84
2023/09/15 09:44:40;;;;;;;8.88;7.45;;;18.20;99.90;;;;;;4978353;28;20030;-85
2023/09/15 09:47:09;;;;;;;9.88;8.18;;;19.00;99.90;;;;;;4979178;28;20382;-84
2023/09/15 09:49:36;;;;;;;9.73;8.73;;;18.30;99.90;;;;;;4972705;28;20049;-85
2023/09/15 09:52:03;;;;;;;7.10;6.43;;;18.40;99.90;;;;;;4971979;28;20398;-84
2023/09/15 09:54:31;;;;;;;12.55;8.90;;;18.40;99.90;;;;;;4972789;28;20026;-84
2023/09/15 09:56:57;;;;;;;11.57;8.68;;;18.50;99.90;;;;;;4971059;28;20063;-85
2023/09/15 09:59:22;;;;;;;11.50;8.15;;;18.50;99.90;;;;;;4972417;28;20051;-84
2023/09/15 10:01:48;;;;;;;9.98;9.07;;;18.60;99.90;;;;;;4971727;28;20090;-84
2023/09/15 10:04:14;;;;;;;12.30;9.52;;;18.40;99.90;;;;;;4975955;28;20025;-88
2023/09/15 10:06:39;;;;;;;11.15;9.63;;;19.00;99.90;;;;;;4973602;28;20424;-83
2023/09/15 10:09:06;;;;;;;11.55;9.95;;;18.70;99.90;;;;;;4975975;28;20046;-83
2023/09/15 10:11:35;;;;;;;10.23;9.07;;;18.80;99.90;;;;;;4964344;28;20035;-84
2023/09/15 10:14:04;;;;;;;13.30;9.77;;;18.80;99.90;;;;;;4956749;29;20427;-84
2023/09/15 10:16:34;;;;;;;10.95;8.55;;;18.90;99.90;;;;;;4960170;28;20066;-84
2023/09/15 10:19:03;;;;;;;10.93;9.90;;;18.90;99.90;;;;;;4975219;28;20031;-84
2023/09/15 10:21:30;;;;;;;12.57;9.50;;;19.00;99.90;;;;;;4975914;28;20483;-84
2023/09/15 10:24:07;;;;;;;10.13;9.23;;;19.40;99.90;;;;;;4975891;28;20403;-85
2023/09/15 10:26:41;;;;;;;12.88;9.65;;;19.00;99.90;;;;;;4974618;28;20027;-84
2023/09/15 10:29:07;;;;;;;15.25;9.45;;;19.10;99.90;;;;;;4976098;28;20436;-84
2023/09/15 10:31:34;;;;;;;10.48;8.98;;;19.20;99.90;;;;;;4972513;28;20089;-84
2023/09/15 10:34:04;;;;;;;11.52;9.93;;;19.20;99.90;;;;;;4974587;28;20101;-84
2023/09/15 10:36:32;;;;;;;10.30;9.25;;;19.20;99.90;;;;;;4975291;28;20081;-85
2023/09/15 10:38:58;;;;;;;13.25;9.35;;;19.20;99.90;;;;;;4979740;28;20353;-83
2023/09/15 10:41:26;;;;;;;11.07;8.05;;;19.20;99.90;;;;;;4982112;28;20539;-85
2023/09/15 10:43:51;;;;;;;12.05;8.60;;;19.20;99.90;;;;;;4972593;28;20042;-84
2023/09/15 10:46:17;;;;;;;9.30;7.60;;;19.30;99.90;;;;;;4974144;28;20022;-84
2023/09/15 10:48:47;;;;;;;10.55;7.95;;;19.40;99.90;;;;;;4971734;28;20019;-85
2023/09/15 10:51:22;;;;;;;12.13;6.93;;;19.40;99.90;;;;;;4973301;28;20023;-84
2023/09/15 10:53:49;;;;;;;10.95;7.20;;;19.40;99.90;;;;;;4975023;28;20057;-87
2023/09/15 10:56:17;;;;;;;10.80;7.15;;;19.50;99.90;;;;;;4975131;28;20154;-85
2023/09/15 10:58:46;;;;;;;11.15;7.55;;;19.60;99.90;;;;;;4975481;28;20050;-84
2023/09/15 11:01:13;;;;;;;9.00;6.63;;;19.60;99.90;;;;;;4974541;28;20038;-85
2023/09/15 11:03:40;;;;;;;12.18;6.72;;;19.60;99.90;;;;;;4964550;28;20023;-84
2023/09/15 11:06:10;;;;;;;7.25;6.32;;;19.70;99.90;;;;;;4955996;29;20480;-84
2023/09/15 11:08:36;;;;;;;7.10;6.30;;;19.70;99.90;;;;;;4971991;28;20501;-84
2023/09/15 11:11:09;;;;;;;8.10;5.28;;;19.60;99.90;;;;;;4969383;28;20031;-84
2023/09/15 11:13:36;;;;;;;10.45;6.63;;;20.40;99.90;;;;;;4954729;28;20027;-85
2023/09/15 11:16:02;;;;;;;17.52;6.07;;;19.70;99.90;;;;;;4969437;28;20059;-85
2023/09/15 11:18:31;;;;;;;16.67;7.13;;;19.80;99.90;;;;;;4963486;28;20079;-84
2023/09/15 11:20:58;;;;;;;7.07;6.38;;;19.80;99.90;;;;;;4955565;29;20050;-86
2023/09/15 11:23:24;;;;;;;11.50;6.05;;;19.80;99.90;;;;;;4955742;29;20122;-87
2023/09/15 11:26:04;;;;;;;9.20;6.65;;;19.80;99.90;;;;;;4958339;28;20059;-83
2023/09/15 11:28:40;;;;;;;13.27;6.88;;;19.90;99.90;;;;;;4961779;28;20069;-80
2023/09/15 11:31:08;;;;;;;9.75;6.90;;;19.90;99.90;;;;;;4974677;28;20451;-83
2023/09/15 11:33:33;;;;;;;9.52;6.88;;;20.30;99.90;;;;;;4972700;28;20037;-83
2023/09/15 11:36:00;;;;;;;8.13;7.00;;;20.00;99.90;;;;;;4969541;28;20114;-83
2023/09/15 11:38:28;;;;;;;7.57;6.63;;;20.00;99.90;;;;;;4967784;28;20058;-83
2023/09/15 11:40:54;;;;;;;8.68;7.35;;;20.10;99.90;;;;;;4973149;28;20082;-83
2023/09/15 11:43:23;;;;;;;10.60;7.85;;;20.10;99.90;;;;;;4958417;28;20102;-83
2023/09/15 11:45:51;;;;;;;12.33;7.10;;;20.20;99.90;;;;;;4956663;28;20031;-83
2023/09/15 11:48:18;;;;;;;9.57;7.15;;;20.20;99.90;;;;;;4973579;28;20031;-83
2023/09/15 11:50:46;;;;;;;11.07;8.00;;;20.30;99.90;;;;;;4963985;28;20094;-83
2023/09/15 11:53:12;;;;;;;10.15;6.60;;;20.30;99.90;;;;;;4965203;28;20436;-84
2023/09/15 11:55:37;;;;;;;8.73;7.28;;;20.40;99.90;;;;;;4973793;28;20027;-83
2023/09/15 11:58:04;;;;;;;7.72;6.90;;;20.40;99.90;;;;;;4956312;28;20470;-83
2023/09/15 12:00:32;;;;;;;12.20;6.00;;;20.40;99.90;;;;;;4952353;29;20024;-82
2023/09/15 12:02:59;;;;;;;14.95;7.40;;;20.50;99.90;;;;;;4952523;29;20558;-83
2023/09/15 12:05:26;;;;;;;11.43;6.60;;;20.50;99.90;;;;;;4952167;29;20031;-83
2023/09/15 12:07:52;;;;;;;8.63;6.40;;;20.60;99.90;;;;;;4952764;29;20113;-83
2023/09/15 12:10:21;;;;;;;10.23;7.20;;;20.70;99.90;;;;;;4965778;28;20201;-89
2023/09/15 12:12:47;;;;;;;14.70;7.38;;;20.70;99.90;;;;;;4971432;28;20023;-88
2023/09/15 12:15:14;;;;;;;7.85;6.40;;;20.70;99.90;;;;;;4974231;28;20387;-88
2023/09/15 12:17:49;;;;;;;9.77;5.78;;;20.80;99.90;;;;;;4968400;28;20035;-89
2023/09/15 12:20:14;;;;;;;15.45;6.07;;;20.80;99.90;;;;;;4955802;29;20027;-88
2023/09/15 12:22:42;;;;;;;5.45;4.95;;;20.80;99.90;;;;;;4955336;29;20474;-87
2023/09/15 12:25:13;;;;;;;5.78;5.28;;;20.90;99.90;;;;;;4962409;28;20046;-89
2023/09/15 12:27:39;;;;;;;7.50;5.90;;;21.00;99.90;;;;;;4981816;28;20054;-89
2023/09/15 12:30:06;;;;;;;8.65;5.45;;;21.00;99.90;;;;;;4985668;28;20030;-87
2023/09/15 12:32:33;;;;;;;6.57;5.75;;;21.10;99.90;;;;;;4974494;28;20463;-85
2023/09/15 12:34:59;;;;;;;7.47;6.75;;;21.20;99.90;;;;;;4978627;28;20011;-92
2023/09/15 12:37:26;;;;;;;11.48;5.85;;;21.20;99.90;;;;;;4985051;28;20074;-86
2023/09/15 12:39:52;;;;;;;7.07;6.38;;;21.30;99.90;;;;;;4951700;29;20119;-86
2023/09/15 12:42:18;;;;;;;7.35;6.60;;;21.10;99.90;;;;;;4953480;29;20159;-86
2023/09/15 12:44:43;;;;;;;6.75;6.15;;;21.20;99.90;;;;;;4953085;29;20464;-86
2023/09/15 12:47:10;;;;;;;8.15;5.55;;;21.20;99.90;;;;;;4951895;29;20024;-86
2023/09/15 12:49:35;;;;;;;8.52;6.40;;;21.20;99.90;;;;;;4957553;28;20050;-86
2023/09/15 12:52:02;;;;;;;6.50;5.90;;;21.10;99.90;;;;;;4959810;28;20015;-85
2023/09/15 12:54:27;;;;;;;7.63;5.85;;;21.10;99.90;;;;;;4956543;28;20031;-86